Xekmatt — OR2473 — position and weather

sailwx.info

Track history (hours):
 
Tides and Currents Weather Stations Pressure Air Temp Water Temp Dewpoint Dewpoint Depression Visibility Wind Speed Wind Dir Waves Ship Positions

Xekmatt

Last reported at 2015-Jun-28 17:28 UTC. Time now 2015-Jul-04 13:36 UTC.
Position N 38°41' W 009°13'.

Length 14 m.

Type: Sailing vessel. MMSI: 205247310.

Date/timePositionNaut miles runAvg speedWind from/ knotsBaromVisibWave heightAir tempDewpointWater temp
2015-Jun-28 17:28N 38°41' W 009°13'6 6.0
2015-Jun-28 16:33N 38°40' W 009°20'4 4.1
2015-Jun-28 15:31N 38°41' W 009°25'0 0.0
2015-Jun-28 14:28N 38°41' W 009°25'0 0.3
2015-Jun-28 13:33N 38°42' W 009°25'2 1.9
2015-Jun-28 12:33N 38°41' W 009°27'1 0.5
2015-Jun-28 11:33N 38°40' W 009°27'2 2.1
2015-Jun-28 10:33N 38°42' W 009°25'1 0.0
2015-Jun-27 15:26N 38°41' W 009°24'2 2.1
2015-Jun-27 14:33N 38°40' W 009°27'1 1.0
2015-Jun-27 13:33N 38°39' W 009°26'2 1.9
2015-Jun-27 12:29N 38°41' W 009°25'0 0.3
2015-Jun-27 11:24N 38°41' W 009°25'3 3.8
2015-Jun-27 10:33N 38°41' W 009°21'7 6.8
2015-Jun-27 09:32N 38°42' W 009°12'  
Track history (hours):
 
Tides and Currents Weather Stations Pressure Air Temp Water Temp Dewpoint Dewpoint Depression Visibility Wind Speed Wind Dir Waves Ship Positions

Xekmatt

Last reported at 2015-Jun-28 17:28 UTC. Time now 2015-Jul-04 13:36 UTC.
Position N 38°41' W 009°13'.

Length 14 m.

Type: Sailing vessel. MMSI: 205247310.

Date/timePositionNaut miles runAvg speedWind from/ knotsBaromVisibWave heightAir tempDewpointWater temp
2015-Jun-28 17:28N 38°41' W 009°13'6 6.0
2015-Jun-28 16:33N 38°40' W 009°20'4 4.1
2015-Jun-28 15:31N 38°41' W 009°25'0 0.0
2015-Jun-28 14:28N 38°41' W 009°25'0 0.3
2015-Jun-28 13:33N 38°42' W 009°25'2 1.9
2015-Jun-28 12:33N 38°41' W 009°27'1 0.5
2015-Jun-28 11:33N 38°40' W 009°27'2 2.1
2015-Jun-28 10:33N 38°42' W 009°25'1 0.0
2015-Jun-27 15:26N 38°41' W 009°24'2 2.1
2015-Jun-27 14:33N 38°40' W 009°27'1 1.0
2015-Jun-27 13:33N 38°39' W 009°26'2 1.9
2015-Jun-27 12:29N 38°41' W 009°25'0 0.3
2015-Jun-27 11:24N 38°41' W 009°25'3 3.8
2015-Jun-27 10:33N 38°41' W 009°21'7 6.8
2015-Jun-27 09:32N 38°42' W 009°12'  

Dump ship's entire track history